RJAA/NRT METAR and TAF weather

Enter ICAO airport designator
Station Type Date Time Source
RJAA METAR 2021/05/14 04:00 UTC NOAA

RJAA 140400Z 36006KT 260V060 9999 FEW020 BKN/// 25/16 Q1011 BECMG FM0430 08005KT


Station Type Date Time Source
RJAA Decoded METAR 2021/05/14 04:00 UTC NOAA

New Tokyo Inter-National Airport, Japan (RJAA) 35-46N 140-23E 44M
May 14, 2021 - 12:00 AM EDT / 2021.05.14 0400 UTC
Wind: from the N (360 degrees) at 7 MPH (6 KT) (direction variable):0
Visibility: greater than 7 mile(s):0
Sky conditions: mostly cloudy
Temperature: 77 F (25 C)
Dew Point: 60 F (16 C)
Relative Humidity: 57%
Pressure (altimeter): 29.85 in. Hg (1011 hPa)
ob: RJAA 140400Z 36006KT 260V060 9999 FEW020 BKN/// 25/16 Q1011 BECMG FM0430 08005KT
cycle: 4

Station Type Date Time Source
RJAA TAF 2021/05/13 22:03 UTC NOAA

TAF
AMD RJAA 132200Z 1322/1500 01008KT 8000 FEW010 SCT020
BECMG 1404/1406 07006KT
BECMG 1415/1418 3000 BR FEW005 BKN008
TEMPO 1418/1421 1200 BR BCFG FEW003 BKN005

Example: see airport list